This is the latest recevied weather packets stored in our database for station/object KF6ILA. If no packets are shown the sender has not sent any weather packets the latest 10 day(s).
| Time | Temp. | Humidity | Pressure | Rain* | Wind** | Luminosity | Snow |
|---|---|---|---|---|---|---|---|
| 1788105518 | 25° C | 40% | 1015.7 hPa | 0 mm | - | 526 W/m² | - |
| 1788104924 | 24.44° C | 41% | 1015.7 hPa | 0 mm | - | 492 W/m² | - |
| 1788104033 | 23.89° C | 42% | 1015.6 hPa | 0 mm | - | 443 W/m² | - |
| 1788103142 | 23.89° C | 43% | 1015.3 hPa | 0 mm | - | 388 W/m² | - |
| 1788102845 | 23.33° C | 44% | 1015.3 hPa | 0 mm | - | 371 W/m² | - |
| 1788102548 | 23.33° C | 44% | 1015.3 hPa | 0 mm | - | 350 W/m² | - |
| 1788102251 | 23.33° C | 44% | 1015.4 hPa | 0 mm | - | 332 W/m² | - |
| 1788101954 | 22.78° C | 44% | 1015.4 hPa | 0 mm | - | 313 W/m² | - |
| 1788101657 | 22.78° C | 45% | 1015.5 hPa | 0 mm | - | 295 W/m² | - |
| 1788101063 | 22.22° C | 46% | 1015.5 hPa | 0 mm | - | 258 W/m² | - |
| 1788100172 | 21.67° C | 47% | 1015.4 hPa | 0 mm | - | 204 W/m² | - |
| 1788099875 | 21.67° C | 47% | 1015.4 hPa | 0 mm | - | 186 W/m² | - |
| 1788099281 | 21.67° C | 47% | 1015.4 hPa | 0 mm | - | 146 W/m² | - |
| 1788098390 | 21.11° C | 48% | 1015.2 hPa | 0 mm | - | 84 W/m² | - |
| 1788098093 | 21.11° C | 48% | 1015.2 hPa | 0 mm | - | 65 W/m² | - |
| 1788097499 | 21.11° C | 48% | 1015 hPa | 0 mm | - | 33 W/m² | - |
| 1788097202 | 21.11° C | 48% | 1015 hPa | 0 mm | - | 21 W/m² | - |
| 1788096608 | 21.11° C | 49% | 1014.9 hPa | 0 mm | - | 9 W/m² | - |
| 1788096311 | 21.11° C | 49% | 1014.8 hPa | 0 mm | - | 7 W/m² | - |
| 1788095717 | 21.11° C | 50% | 1014.8 hPa | 0 mm | - | 0 W/m² | - |
| 1788094529 | 21.11° C | 51% | 1014.7 hPa | 0 mm | - | 0 W/m² | - |
| 1788093935 | 21.11° C | 52% | 1014.7 hPa | 0 mm | - | 0 W/m² | - |
| 1788093638 | 21.11° C | 52% | 1014.6 hPa | 0 mm | - | 0 W/m² | - |
| 1788092747 | 21.11° C | 52% | 1014.7 hPa | 0 mm | - | 0 W/m² | - |
| 1788092450 | 21.11° C | 52% | 1014.7 hPa | 0 mm | - | 0 W/m² | - |
* Rain latest hour (hover to see other rain measurements)
** Current wind speed in m/s (hover to see current wind gust speed)